Butternuts, New York
Current Conditions -  °F | °C
As of 10:26 PM on Saturday 22 Nov 2014 (Local Time) from KBGM Reporting Station
Overcast Overcast  
Wind Chill: 28°   Ceiling: 2800
Heat Index: 37°   Visibility: 10mi
Dew Point: 31°   Wind: 14mph
Humidity: 79%   Direction: 220°SW
Pressure: 30.05"   Gusts: NA
Location:  42.4446°N, 75.3595°W
Report Text: KBGM 230326Z 22012KT 10SM SCT023 BKN028 OVC038 03/M01 A3005 RMK AO2 RAE24 P0002 T00281006
Loading
Personal Weather Stations






























Interactive Weather Map New forecast layout! Learn more

10-Day Weather Forecast

Advertisements
Track Severe Weather on mobile